sensor_id;sensor_type;location;lat;lon;timestamp;temperature;humidity
8892;DHT22;4482;54.332;10.118;2024-02-23T00:00:00;11.00;99.90
8892;DHT22;4482;54.332;10.118;2024-02-23T00:02:30;11.00;99.90
8892;DHT22;4482;54.332;10.118;2024-02-23T00:04:57;10.90;99.90
8892;DHT22;4482;54.332;10.118;2024-02-23T00:07:24;10.80;99.90
8892;DHT22;4482;54.332;10.118;2024-02-23T00:09:51;10.80;99.90
8892;DHT22;4482;54.332;10.118;2024-02-23T00:12:19;10.70;99.90
8892;DHT22;4482;54.332;10.118;2024-02-23T00:14:46;10.60;99.90
8892;DHT22;4482;54.332;10.118;2024-02-23T00:17:12;10.50;99.90
8892;DHT22;4482;54.332;10.118;2024-02-23T00:19:39;10.40;99.90
8892;DHT22;4482;54.332;10.118;2024-02-23T00:22:06;10.40;99.90
8892;DHT22;4482;54.332;10.118;2024-02-23T00:24:32;10.30;99.90
8892;DHT22;4482;54.332;10.118;2024-02-23T00:26:59;10.20;99.90
8892;DHT22;4482;54.332;10.118;2024-02-23T00:29:28;10.10;99.90
8892;DHT22;4482;54.332;10.118;2024-02-23T00:31:54;10.10;99.90
8892;DHT22;4482;54.332;10.118;2024-02-23T00:34:21;10.10;99.90
8892;DHT22;4482;54.332;10.118;2024-02-23T00:36:48;10.10;99.90
8892;DHT22;4482;54.332;10.118;2024-02-23T00:39:15;10.10;99.90
8892;DHT22;4482;54.332;10.118;2024-02-23T00:41:41;10.10;99.90
8892;DHT22;4482;54.332;10.118;2024-02-23T00:44:08;10.10;99.90
8892;DHT22;4482;54.332;10.118;2024-02-23T00:46:36;10.00;99.90
8892;DHT22;4482;54.332;10.118;2024-02-23T00:49:05;10.00;99.90
8892;DHT22;4482;54.332;10.118;2024-02-23T00:51:31;10.00;99.90
8892;DHT22;4482;54.332;10.118;2024-02-23T00:53:58;9.80;99.90
8892;DHT22;4482;54.332;10.118;2024-02-23T00:56:25;9.50;99.90
8892;DHT22;4482;54.332;10.118;2024-02-23T00:58:53;9.30;99.90
8892;DHT22;4482;54.332;10.118;2024-02-23T01:01:19;9.00;99.90
8892;DHT22;4482;54.332;10.118;2024-02-23T01:03:47;8.50;99.90
8892;DHT22;4482;54.332;10.118;2024-02-23T01:06:14;8.10;99.90
8892;DHT22;4482;54.332;10.118;2024-02-23T01:08:42;7.90;99.90
8892;DHT22;4482;54.332;10.118;2024-02-23T01:11:09;7.80;99.90
8892;DHT22;4482;54.332;10.118;2024-02-23T01:13:35;7.70;99.90
8892;DHT22;4482;54.332;10.118;2024-02-23T01:16:02;7.70;99.90
8892;DHT22;4482;54.332;10.118;2024-02-23T01:18:29;7.70;99.90
8892;DHT22;4482;54.332;10.118;2024-02-23T01:20:57;7.70;99.90
8892;DHT22;4482;54.332;10.118;2024-02-23T01:23:24;7.80;99.90
8892;DHT22;4482;54.332;10.118;2024-02-23T01:25:50;7.70;99.90
8892;DHT22;4482;54.332;10.118;2024-02-23T01:28:17;7.80;99.90
8892;DHT22;4482;54.332;10.118;2024-02-23T01:30:44;7.80;99.90
8892;DHT22;4482;54.332;10.118;2024-02-23T01:33:11;7.80;99.90
8892;DHT22;4482;54.332;10.118;2024-02-23T01:35:38;7.80;99.90
8892;DHT22;4482;54.332;10.118;2024-02-23T01:38:06;7.80;99.90
8892;DHT22;4482;54.332;10.118;2024-02-23T01:40:33;7.80;99.90
8892;DHT22;4482;54.332;10.118;2024-02-23T01:43:00;7.90;99.90
8892;DHT22;4482;54.332;10.118;2024-02-23T01:45:27;7.80;99.90
8892;DHT22;4482;54.332;10.118;2024-02-23T01:47:53;7.80;99.90
8892;DHT22;4482;54.332;10.118;2024-02-23T01:50:20;7.80;99.90
8892;DHT22;4482;54.332;10.118;2024-02-23T01:52:47;7.70;99.90
8892;DHT22;4482;54.332;10.118;2024-02-23T01:55:17;7.70;99.90
8892;DHT22;4482;54.332;10.118;2024-02-23T01:57:44;7.70;99.90
8892;DHT22;4482;54.332;10.118;2024-02-23T02:00:12;7.70;99.90
8892;DHT22;4482;54.332;10.118;2024-02-23T02:02:42;7.70;99.90
8892;DHT22;4482;54.332;10.118;2024-02-23T02:05:09;7.60;99.90
8892;DHT22;4482;54.332;10.118;2024-02-23T02:07:36;7.50;99.90
8892;DHT22;4482;54.332;10.118;2024-02-23T02:10:03;7.60;99.90
8892;DHT22;4482;54.332;10.118;2024-02-23T02:12:32;7.60;99.90
8892;DHT22;4482;54.332;10.118;2024-02-23T02:14:59;7.50;99.90
8892;DHT22;4482;54.332;10.118;2024-02-23T02:17:26;7.40;99.90
8892;DHT22;4482;54.332;10.118;2024-02-23T02:19:53;7.30;99.90
8892;DHT22;4482;54.332;10.118;2024-02-23T02:22:20;7.30;99.90
8892;DHT22;4482;54.332;10.118;2024-02-23T02:24:47;7.30;99.90
8892;DHT22;4482;54.332;10.118;2024-02-23T02:27:14;7.20;99.90
8892;DHT22;4482;54.332;10.118;2024-02-23T02:29:42;7.20;99.90
8892;DHT22;4482;54.332;10.118;2024-02-23T02:32:09;7.20;99.90
8892;DHT22;4482;54.332;10.118;2024-02-23T02:34:35;7.20;99.90
8892;DHT22;4482;54.332;10.118;2024-02-23T02:37:02;7.20;99.90
8892;DHT22;4482;54.332;10.118;2024-02-23T02:39:29;7.20;99.90
8892;DHT22;4482;54.332;10.118;2024-02-23T02:41:56;7.00;99.90
8892;DHT22;4482;54.332;10.118;2024-02-23T02:44:22;6.90;99.90
8892;DHT22;4482;54.332;10.118;2024-02-23T02:46:50;6.80;99.90
8892;DHT22;4482;54.332;10.118;2024-02-23T02:49:17;6.80;99.90
8892;DHT22;4482;54.332;10.118;2024-02-23T02:51:44;6.80;99.90
8892;DHT22;4482;54.332;10.118;2024-02-23T02:54:11;6.70;99.90
8892;DHT22;4482;54.332;10.118;2024-02-23T02:56:41;6.70;99.90
8892;DHT22;4482;54.332;10.118;2024-02-23T02:59:08;6.70;99.90
8892;DHT22;4482;54.332;10.118;2024-02-23T03:01:35;6.60;99.90
8892;DHT22;4482;54.332;10.118;2024-02-23T03:04:03;6.60;99.90
8892;DHT22;4482;54.332;10.118;2024-02-23T03:06:30;6.50;99.90
8892;DHT22;4482;54.332;10.118;2024-02-23T03:08:57;6.40;99.90
8892;DHT22;4482;54.332;10.118;2024-02-23T03:11:23;6.30;99.90
8892;DHT22;4482;54.332;10.118;2024-02-23T03:13:50;6.20;99.90
8892;DHT22;4482;54.332;10.118;2024-02-23T03:16:17;6.20;99.90
8892;DHT22;4482;54.332;10.118;2024-02-23T03:18:44;6.20;99.90
8892;DHT22;4482;54.332;10.118;2024-02-23T03:21:12;6.10;99.90
8892;DHT22;4482;54.332;10.118;2024-02-23T03:23:40;6.10;99.90
8892;DHT22;4482;54.332;10.118;2024-02-23T03:26:07;6.10;99.90
8892;DHT22;4482;54.332;10.118;2024-02-23T03:28:34;6.20;99.90
8892;DHT22;4482;54.332;10.118;2024-02-23T03:31:01;6.20;99.90
8892;DHT22;4482;54.332;10.118;2024-02-23T03:33:28;6.20;99.90
8892;DHT22;4482;54.332;10.118;2024-02-23T03:35:57;6.30;99.90
8892;DHT22;4482;54.332;10.118;2024-02-23T03:38:25;6.30;99.90
8892;DHT22;4482;54.332;10.118;2024-02-23T03:40:52;6.30;99.90
8892;DHT22;4482;54.332;10.118;2024-02-23T03:43:19;6.30;99.90
8892;DHT22;4482;54.332;10.118;2024-02-23T03:45:46;6.40;99.90
8892;DHT22;4482;54.332;10.118;2024-02-23T03:48:13;6.30;99.90
8892;DHT22;4482;54.332;10.118;2024-02-23T03:50:39;6.30;99.90
8892;DHT22;4482;54.332;10.118;2024-02-23T03:53:06;6.40;99.90
8892;DHT22;4482;54.332;10.118;2024-02-23T03:55:34;6.40;99.90
8892;DHT22;4482;54.332;10.118;2024-02-23T03:58:01;6.40;99.90
8892;DHT22;4482;54.332;10.118;2024-02-23T04:00:28;6.40;99.90
8892;DHT22;4482;54.332;10.118;2024-02-23T04:02:55;6.40;99.90
8892;DHT22;4482;54.332;10.118;2024-02-23T04:05:21;6.40;99.90
8892;DHT22;4482;54.332;10.118;2024-02-23T04:07:48;6.50;99.90
8892;DHT22;4482;54.332;10.118;2024-02-23T04:10:15;6.50;99.90
8892;DHT22;4482;54.332;10.118;2024-02-23T04:12:43;6.50;99.90
8892;DHT22;4482;54.332;10.118;2024-02-23T04:15:10;6.50;99.90
8892;DHT22;4482;54.332;10.118;2024-02-23T04:17:37;6.50;99.90
8892;DHT22;4482;54.332;10.118;2024-02-23T04:20:05;6.50;99.90
8892;DHT22;4482;54.332;10.118;2024-02-23T04:22:32;6.50;99.90
8892;DHT22;4482;54.332;10.118;2024-02-23T04:24:59;6.60;99.90
8892;DHT22;4482;54.332;10.118;2024-02-23T04:27:25;6.60;99.90
8892;DHT22;4482;54.332;10.118;2024-02-23T04:29:54;6.60;99.90
8892;DHT22;4482;54.332;10.118;2024-02-23T04:32:20;6.60;99.90
8892;DHT22;4482;54.332;10.118;2024-02-23T04:34:47;6.60;99.90
8892;DHT22;4482;54.332;10.118;2024-02-23T04:37:14;6.60;99.90
8892;DHT22;4482;54.332;10.118;2024-02-23T04:39:43;6.60;99.90
8892;DHT22;4482;54.332;10.118;2024-02-23T04:42:10;6.60;99.90
8892;DHT22;4482;54.332;10.118;2024-02-23T04:44:36;6.70;99.90
8892;DHT22;4482;54.332;10.118;2024-02-23T04:47:05;6.60;99.90
8892;DHT22;4482;54.332;10.118;2024-02-23T04:49:31;6.60;99.90
8892;DHT22;4482;54.332;10.118;2024-02-23T04:51:58;6.60;99.90
8892;DHT22;4482;54.332;10.118;2024-02-23T04:54:25;6.60;99.90
8892;DHT22;4482;54.332;10.118;2024-02-23T04:56:51;6.60;99.90
8892;DHT22;4482;54.332;10.118;2024-02-23T04:59:18;6.60;99.90
8892;DHT22;4482;54.332;10.118;2024-02-23T05:01:45;6.60;99.90
8892;DHT22;4482;54.332;10.118;2024-02-23T05:04:14;6.60;99.90
8892;DHT22;4482;54.332;10.118;2024-02-23T05:06:40;6.60;99.90
8892;DHT22;4482;54.332;10.118;2024-02-23T05:09:08;6.60;99.90
8892;DHT22;4482;54.332;10.118;2024-02-23T05:11:36;6.60;99.90
8892;DHT22;4482;54.332;10.118;2024-02-23T05:14:03;6.60;99.90
8892;DHT22;4482;54.332;10.118;2024-02-23T05:16:29;6.60;99.90
8892;DHT22;4482;54.332;10.118;2024-02-23T05:18:56;6.60;99.90
8892;DHT22;4482;54.332;10.118;2024-02-23T05:21:24;6.60;99.90
8892;DHT22;4482;54.332;10.118;2024-02-23T05:23:51;6.70;99.90
8892;DHT22;4482;54.332;10.118;2024-02-23T05:26:18;6.70;99.90
8892;DHT22;4482;54.332;10.118;2024-02-23T05:28:45;6.70;99.90
8892;DHT22;4482;54.332;10.118;2024-02-23T05:31:12;6.60;99.90
8892;DHT22;4482;54.332;10.118;2024-02-23T05:33:38;6.60;99.90
8892;DHT22;4482;54.332;10.118;2024-02-23T05:36:05;6.70;99.90
8892;DHT22;4482;54.332;10.118;2024-02-23T05:38:34;6.60;99.90
8892;DHT22;4482;54.332;10.118;2024-02-23T05:41:00;6.60;99.90
8892;DHT22;4482;54.332;10.118;2024-02-23T05:43:27;6.60;99.90
8892;DHT22;4482;54.332;10.118;2024-02-23T05:45:54;6.60;99.90
8892;DHT22;4482;54.332;10.118;2024-02-23T05:48:22;6.70;99.90
8892;DHT22;4482;54.332;10.118;2024-02-23T05:50:49;6.60;99.90
8892;DHT22;4482;54.332;10.118;2024-02-23T05:53:16;6.60;99.90
8892;DHT22;4482;54.332;10.118;2024-02-23T05:55:44;6.50;99.90
8892;DHT22;4482;54.332;10.118;2024-02-23T05:58:10;6.50;99.90
8892;DHT22;4482;54.332;10.118;2024-02-23T06:00:39;6.40;99.90
8892;DHT22;4482;54.332;10.118;2024-02-23T06:03:05;6.40;99.90
8892;DHT22;4482;54.332;10.118;2024-02-23T06:05:32;6.40;99.90
8892;DHT22;4482;54.332;10.118;2024-02-23T06:07:59;6.40;99.90
8892;DHT22;4482;54.332;10.118;2024-02-23T06:10:26;6.50;99.90
8892;DHT22;4482;54.332;10.118;2024-02-23T06:12:54;6.40;99.90
8892;DHT22;4482;54.332;10.118;2024-02-23T06:15:21;6.40;99.90
8892;DHT22;4482;54.332;10.118;2024-02-23T06:17:48;6.40;99.90
8892;DHT22;4482;54.332;10.118;2024-02-23T06:20:15;6.40;99.90
8892;DHT22;4482;54.332;10.118;2024-02-23T06:22:41;6.40;99.90
8892;DHT22;4482;54.332;10.118;2024-02-23T06:25:08;6.50;99.90
8892;DHT22;4482;54.332;10.118;2024-02-23T06:27:37;6.40;99.90
8892;DHT22;4482;54.332;10.118;2024-02-23T06:30:05;6.50;99.90
8892;DHT22;4482;54.332;10.118;2024-02-23T06:32:32;6.50;99.90
8892;DHT22;4482;54.332;10.118;2024-02-23T06:34:59;6.60;99.90
8892;DHT22;4482;54.332;10.118;2024-02-23T06:37:26;6.70;99.90
8892;DHT22;4482;54.332;10.118;2024-02-23T06:39:52;6.70;99.90
8892;DHT22;4482;54.332;10.118;2024-02-23T06:42:20;6.70;99.90
8892;DHT22;4482;54.332;10.118;2024-02-23T06:44:47;6.70;99.90
8892;DHT22;4482;54.332;10.118;2024-02-23T06:47:15;6.80;99.90
8892;DHT22;4482;54.332;10.118;2024-02-23T06:49:41;6.80;99.90
8892;DHT22;4482;54.332;10.118;2024-02-23T06:52:08;6.80;99.90
8892;DHT22;4482;54.332;10.118;2024-02-23T06:54:35;6.80;99.90
8892;DHT22;4482;54.332;10.118;2024-02-23T06:57:02;6.80;99.90
8892;DHT22;4482;54.332;10.118;2024-02-23T06:59:29;6.80;99.90
8892;DHT22;4482;54.332;10.118;2024-02-23T07:01:55;6.80;99.90
8892;DHT22;4482;54.332;10.118;2024-02-23T07:04:23;6.80;99.90
8892;DHT22;4482;54.332;10.118;2024-02-23T07:06:50;6.80;99.90
8892;DHT22;4482;54.332;10.118;2024-02-23T07:09:17;6.90;99.90
8892;DHT22;4482;54.332;10.118;2024-02-23T07:11:44;6.90;99.90
8892;DHT22;4482;54.332;10.118;2024-02-23T07:14:11;7.00;99.90
8892;DHT22;4482;54.332;10.118;2024-02-23T07:16:39;7.10;99.90
8892;DHT22;4482;54.332;10.118;2024-02-23T07:19:06;7.00;99.90
8892;DHT22;4482;54.332;10.118;2024-02-23T07:21:35;7.00;99.90
8892;DHT22;4482;54.332;10.118;2024-02-23T07:24:02;7.00;99.90
8892;DHT22;4482;54.332;10.118;2024-02-23T07:26:28;7.00;99.90
8892;DHT22;4482;54.332;10.118;2024-02-23T07:28:55;7.00;99.90
8892;DHT22;4482;54.332;10.118;2024-02-23T07:31:22;7.10;99.90
8892;DHT22;4482;54.332;10.118;2024-02-23T07:33:49;7.00;99.90
8892;DHT22;4482;54.332;10.118;2024-02-23T07:36:16;6.90;99.90
8892;DHT22;4482;54.332;10.118;2024-02-23T07:38:44;6.80;99.90
8892;DHT22;4482;54.332;10.118;2024-02-23T07:41:11;6.70;99.90
8892;DHT22;4482;54.332;10.118;2024-02-23T07:43:38;6.80;99.90
8892;DHT22;4482;54.332;10.118;2024-02-23T07:46:05;6.80;99.90
8892;DHT22;4482;54.332;10.118;2024-02-23T07:48:33;6.80;99.90
8892;DHT22;4482;54.332;10.118;2024-02-23T07:51:00;6.60;99.90
8892;DHT22;4482;54.332;10.118;2024-02-23T07:53:27;6.40;99.90
8892;DHT22;4482;54.332;10.118;2024-02-23T07:55:55;6.40;99.90
8892;DHT22;4482;54.332;10.118;2024-02-23T07:58:24;6.40;99.90
8892;DHT22;4482;54.332;10.118;2024-02-23T08:00:51;6.50;99.90
8892;DHT22;4482;54.332;10.118;2024-02-23T08:03:18;6.50;99.90
8892;DHT22;4482;54.332;10.118;2024-02-23T08:05:45;6.60;99.90
8892;DHT22;4482;54.332;10.118;2024-02-23T08:08:12;6.70;99.90
8892;DHT22;4482;54.332;10.118;2024-02-23T08:10:39;6.80;99.90
8892;DHT22;4482;54.332;10.118;2024-02-23T08:13:07;7.00;99.90
8892;DHT22;4482;54.332;10.118;2024-02-23T08:15:35;7.20;99.90
8892;DHT22;4482;54.332;10.118;2024-02-23T08:18:02;7.30;99.90
8892;DHT22;4482;54.332;10.118;2024-02-23T08:20:29;7.30;99.90
8892;DHT22;4482;54.332;10.118;2024-02-23T08:22:56;7.30;99.90
8892;DHT22;4482;54.332;10.118;2024-02-23T08:25:22;7.30;99.90
8892;DHT22;4482;54.332;10.118;2024-02-23T08:27:49;7.40;99.90
8892;DHT22;4482;54.332;10.118;2024-02-23T08:30:17;7.50;99.90
8892;DHT22;4482;54.332;10.118;2024-02-23T08:32:45;7.50;99.90
8892;DHT22;4482;54.332;10.118;2024-02-23T08:35:12;7.70;99.90
8892;DHT22;4482;54.332;10.118;2024-02-23T08:37:39;7.90;99.90
8892;DHT22;4482;54.332;10.118;2024-02-23T08:40:09;8.00;99.90
8892;DHT22;4482;54.332;10.118;2024-02-23T08:42:36;8.10;99.90
8892;DHT22;4482;54.332;10.118;2024-02-23T08:45:02;8.00;99.90
8892;DHT22;4482;54.332;10.118;2024-02-23T08:47:31;8.00;99.90
8892;DHT22;4482;54.332;10.118;2024-02-23T08:50:00;8.00;99.90
8892;DHT22;4482;54.332;10.118;2024-02-23T08:52:27;8.10;99.90
8892;DHT22;4482;54.332;10.118;2024-02-23T08:54:54;8.00;99.90
8892;DHT22;4482;54.332;10.118;2024-02-23T08:57:21;8.00;99.90
8892;DHT22;4482;54.332;10.118;2024-02-23T08:59:48;8.10;99.90
8892;DHT22;4482;54.332;10.118;2024-02-23T09:02:15;8.10;99.90
8892;DHT22;4482;54.332;10.118;2024-02-23T09:04:43;8.00;99.90
8892;DHT22;4482;54.332;10.118;2024-02-23T09:07:11;8.10;99.90
8892;DHT22;4482;54.332;10.118;2024-02-23T09:09:37;8.20;99.90
8892;DHT22;4482;54.332;10.118;2024-02-23T09:12:04;8.40;99.90
8892;DHT22;4482;54.332;10.118;2024-02-23T09:14:32;8.40;99.90
8892;DHT22;4482;54.332;10.118;2024-02-23T09:17:00;8.30;99.90
8892;DHT22;4482;54.332;10.118;2024-02-23T09:19:27;8.30;99.90
8892;DHT22;4482;54.332;10.118;2024-02-23T09:21:55;8.40;99.90
8892;DHT22;4482;54.332;10.118;2024-02-23T09:24:22;8.50;99.90
8892;DHT22;4482;54.332;10.118;2024-02-23T09:26:48;8.60;99.90
8892;DHT22;4482;54.332;10.118;2024-02-23T09:29:15;8.60;99.90
8892;DHT22;4482;54.332;10.118;2024-02-23T09:31:42;8.70;99.90
8892;DHT22;4482;54.332;10.118;2024-02-23T09:34:08;8.80;99.90
8892;DHT22;4482;54.332;10.118;2024-02-23T09:36:35;9.00;99.90
8892;DHT22;4482;54.332;10.118;2024-02-23T09:39:03;8.90;99.90
8892;DHT22;4482;54.332;10.118;2024-02-23T09:41:30;8.80;99.90
8892;DHT22;4482;54.332;10.118;2024-02-23T09:44:00;8.70;99.90
8892;DHT22;4482;54.332;10.118;2024-02-23T09:46:27;8.50;99.90
8892;DHT22;4482;54.332;10.118;2024-02-23T09:48:55;8.40;99.90
8892;DHT22;4482;54.332;10.118;2024-02-23T09:51:22;8.40;99.90
8892;DHT22;4482;54.332;10.118;2024-02-23T09:53:49;8.30;99.90
8892;DHT22;4482;54.332;10.118;2024-02-23T09:56:17;8.40;99.90
8892;DHT22;4482;54.332;10.118;2024-02-23T09:58:45;8.60;99.90
8892;DHT22;4482;54.332;10.118;2024-02-23T10:01:13;8.60;99.90
8892;DHT22;4482;54.332;10.118;2024-02-23T10:03:42;8.60;99.90
8892;DHT22;4482;54.332;10.118;2024-02-23T10:06:09;8.70;99.90
8892;DHT22;4482;54.332;10.118;2024-02-23T10:08:35;8.70;99.90
8892;DHT22;4482;54.332;10.118;2024-02-23T10:11:02;8.60;99.90
8892;DHT22;4482;54.332;10.118;2024-02-23T10:13:30;8.70;99.90
8892;DHT22;4482;54.332;10.118;2024-02-23T10:15:57;8.80;99.90
8892;DHT22;4482;54.332;10.118;2024-02-23T10:18:24;8.80;99.90
8892;DHT22;4482;54.332;10.118;2024-02-23T10:20:51;8.80;99.90
8892;DHT22;4482;54.332;10.118;2024-02-23T10:23:18;8.90;99.90
8892;DHT22;4482;54.332;10.118;2024-02-23T10:25:46;9.00;99.90
8892;DHT22;4482;54.332;10.118;2024-02-23T10:28:12;9.10;99.90
8892;DHT22;4482;54.332;10.118;2024-02-23T10:30:40;9.10;99.90
8892;DHT22;4482;54.332;10.118;2024-02-23T10:33:07;9.20;99.90
8892;DHT22;4482;54.332;10.118;2024-02-23T10:35:34;9.30;99.90
8892;DHT22;4482;54.332;10.118;2024-02-23T10:38:06;9.40;99.90
8892;DHT22;4482;54.332;10.118;2024-02-23T10:40:35;9.50;99.90
8892;DHT22;4482;54.332;10.118;2024-02-23T10:43:06;9.40;99.90
8892;DHT22;4482;54.332;10.118;2024-02-23T10:45:35;9.20;99.90
8892;DHT22;4482;54.332;10.118;2024-02-23T10:48:04;9.10;99.90
8892;DHT22;4482;54.332;10.118;2024-02-23T10:50:31;9.10;99.90
8892;DHT22;4482;54.332;10.118;2024-02-23T10:52:58;9.10;99.90
8892;DHT22;4482;54.332;10.118;2024-02-23T10:55:25;9.00;99.90
8892;DHT22;4482;54.332;10.118;2024-02-23T10:57:53;9.00;99.90
8892;DHT22;4482;54.332;10.118;2024-02-23T11:00:21;9.00;99.90
8892;DHT22;4482;54.332;10.118;2024-02-23T11:02:50;9.00;99.90
8892;DHT22;4482;54.332;10.118;2024-02-23T11:05:19;8.90;99.90
8892;DHT22;4482;54.332;10.118;2024-02-23T11:07:46;8.90;99.90
8892;DHT22;4482;54.332;10.118;2024-02-23T11:10:14;8.80;99.90
8892;DHT22;4482;54.332;10.118;2024-02-23T11:12:41;8.80;99.90
8892;DHT22;4482;54.332;10.118;2024-02-23T11:15:08;8.70;99.90
8892;DHT22;4482;54.332;10.118;2024-02-23T11:17:36;8.70;99.90
8892;DHT22;4482;54.332;10.118;2024-02-23T11:20:04;8.80;99.90
8892;DHT22;4482;54.332;10.118;2024-02-23T11:22:32;8.90;99.90
8892;DHT22;4482;54.332;10.118;2024-02-23T11:25:00;9.00;99.90
8892;DHT22;4482;54.332;10.118;2024-02-23T11:27:30;9.20;99.90
8892;DHT22;4482;54.332;10.118;2024-02-23T11:30:01;9.20;99.90
8892;DHT22;4482;54.332;10.118;2024-02-23T11:32:34;9.10;99.90
8892;DHT22;4482;54.332;10.118;2024-02-23T11:35:03;9.00;99.90
8892;DHT22;4482;54.332;10.118;2024-02-23T11:37:33;9.00;99.90
8892;DHT22;4482;54.332;10.118;2024-02-23T11:40:11;9.00;99.90
8892;DHT22;4482;54.332;10.118;2024-02-23T11:42:38;8.90;99.90
8892;DHT22;4482;54.332;10.118;2024-02-23T11:45:06;9.00;99.90
8892;DHT22;4482;54.332;10.118;2024-02-23T11:47:33;9.20;99.90
8892;DHT22;4482;54.332;10.118;2024-02-23T11:50:00;9.30;99.90
8892;DHT22;4482;54.332;10.118;2024-02-23T11:52:26;9.40;99.90
8892;DHT22;4482;54.332;10.118;2024-02-23T11:54:55;9.60;99.90
8892;DHT22;4482;54.332;10.118;2024-02-23T11:57:22;9.50;99.90
8892;DHT22;4482;54.332;10.118;2024-02-23T11:59:50;9.50;99.90
8892;DHT22;4482;54.332;10.118;2024-02-23T12:02:17;9.60;99.90
8892;DHT22;4482;54.332;10.118;2024-02-23T12:04:44;9.60;99.90
8892;DHT22;4482;54.332;10.118;2024-02-23T12:07:11;9.60;99.90
8892;DHT22;4482;54.332;10.118;2024-02-23T12:09:38;9.70;99.90
8892;DHT22;4482;54.332;10.118;2024-02-23T12:12:08;9.70;99.90
8892;DHT22;4482;54.332;10.118;2024-02-23T12:14:35;9.70;99.90
8892;DHT22;4482;54.332;10.118;2024-02-23T12:17:02;9.60;99.90
8892;DHT22;4482;54.332;10.118;2024-02-23T12:19:31;9.70;99.90
8892;DHT22;4482;54.332;10.118;2024-02-23T12:21:59;9.70;99.90
8892;DHT22;4482;54.332;10.118;2024-02-23T12:24:26;9.80;99.90
8892;DHT22;4482;54.332;10.118;2024-02-23T12:26:54;9.80;99.90
8892;DHT22;4482;54.332;10.118;2024-02-23T12:29:22;9.80;99.90
8892;DHT22;4482;54.332;10.118;2024-02-23T12:31:49;9.80;99.90
8892;DHT22;4482;54.332;10.118;2024-02-23T12:34:16;9.50;99.90
8892;DHT22;4482;54.332;10.118;2024-02-23T12:36:45;9.60;99.90
8892;DHT22;4482;54.332;10.118;2024-02-23T12:39:12;9.60;99.90
8892;DHT22;4482;54.332;10.118;2024-02-23T12:41:39;9.50;99.90
8892;DHT22;4482;54.332;10.118;2024-02-23T12:44:06;9.50;99.90
8892;DHT22;4482;54.332;10.118;2024-02-23T12:46:34;9.50;99.90
8892;DHT22;4482;54.332;10.118;2024-02-23T12:49:00;9.60;99.90
8892;DHT22;4482;54.332;10.118;2024-02-23T12:51:27;9.50;99.90
8892;DHT22;4482;54.332;10.118;2024-02-23T12:53:54;9.50;99.90
8892;DHT22;4482;54.332;10.118;2024-02-23T12:56:20;9.50;99.90
8892;DHT22;4482;54.332;10.118;2024-02-23T12:58:47;9.50;99.90
8892;DHT22;4482;54.332;10.118;2024-02-23T13:01:15;9.60;99.90
8892;DHT22;4482;54.332;10.118;2024-02-23T13:03:43;9.50;99.90
8892;DHT22;4482;54.332;10.118;2024-02-23T13:06:09;9.40;99.90
8892;DHT22;4482;54.332;10.118;2024-02-23T13:08:36;9.30;99.90
8892;DHT22;4482;54.332;10.118;2024-02-23T13:11:04;9.10;99.90
8892;DHT22;4482;54.332;10.118;2024-02-23T13:13:31;9.00;99.90
8892;DHT22;4482;54.332;10.118;2024-02-23T13:15:58;9.00;99.90
8892;DHT22;4482;54.332;10.118;2024-02-23T13:18:25;9.10;99.90
8892;DHT22;4482;54.332;10.118;2024-02-23T13:20:53;9.30;99.90
8892;DHT22;4482;54.332;10.118;2024-02-23T13:23:20;9.20;99.90
8892;DHT22;4482;54.332;10.118;2024-02-23T13:25:46;9.30;99.90
8892;DHT22;4482;54.332;10.118;2024-02-23T13:28:13;9.20;99.90
8892;DHT22;4482;54.332;10.118;2024-02-23T13:30:40;9.30;99.90
8892;DHT22;4482;54.332;10.118;2024-02-23T13:33:07;9.30;99.90
8892;DHT22;4482;54.332;10.118;2024-02-23T13:35:36;9.20;99.90
8892;DHT22;4482;54.332;10.118;2024-02-23T13:38:05;9.30;99.90
8892;DHT22;4482;54.332;10.118;2024-02-23T13:40:32;9.30;99.90
8892;DHT22;4482;54.332;10.118;2024-02-23T13:42:59;9.40;99.90
8892;DHT22;4482;54.332;10.118;2024-02-23T13:45:25;9.40;99.90
8892;DHT22;4482;54.332;10.118;2024-02-23T13:47:55;9.30;99.90
8892;DHT22;4482;54.332;10.118;2024-02-23T13:50:22;9.30;99.90
8892;DHT22;4482;54.332;10.118;2024-02-23T13:52:49;9.40;99.90
8892;DHT22;4482;54.332;10.118;2024-02-23T13:55:17;9.40;99.90
8892;DHT22;4482;54.332;10.118;2024-02-23T13:57:45;9.30;99.90
8892;DHT22;4482;54.332;10.118;2024-02-23T14:00:13;9.30;99.90
8892;DHT22;4482;54.332;10.118;2024-02-23T14:02:40;9.30;99.90
8892;DHT22;4482;54.332;10.118;2024-02-23T14:05:07;9.30;99.90
8892;DHT22;4482;54.332;10.118;2024-02-23T14:07:33;9.30;99.90
8892;DHT22;4482;54.332;10.118;2024-02-23T14:10:00;9.40;99.90
8892;DHT22;4482;54.332;10.118;2024-02-23T14:12:29;9.40;99.90
8892;DHT22;4482;54.332;10.118;2024-02-23T14:14:56;9.30;99.90
8892;DHT22;4482;54.332;10.118;2024-02-23T14:17:22;9.40;99.90
8892;DHT22;4482;54.332;10.118;2024-02-23T14:19:49;9.30;99.90
8892;DHT22;4482;54.332;10.118;2024-02-23T14:22:17;9.20;99.90
8892;DHT22;4482;54.332;10.118;2024-02-23T14:24:43;9.20;99.90
8892;DHT22;4482;54.332;10.118;2024-02-23T14:27:10;9.20;99.90
8892;DHT22;4482;54.332;10.118;2024-02-23T14:29:38;9.20;99.90
8892;DHT22;4482;54.332;10.118;2024-02-23T14:32:05;9.20;99.90
8892;DHT22;4482;54.332;10.118;2024-02-23T14:34:31;9.30;99.90
8892;DHT22;4482;54.332;10.118;2024-02-23T14:36:59;9.20;99.90
8892;DHT22;4482;54.332;10.118;2024-02-23T14:39:25;9.10;99.90
8892;DHT22;4482;54.332;10.118;2024-02-23T14:41:52;9.00;99.90
8892;DHT22;4482;54.332;10.118;2024-02-23T14:44:19;8.90;99.90
8892;DHT22;4482;54.332;10.118;2024-02-23T14:46:47;8.80;99.90
8892;DHT22;4482;54.332;10.118;2024-02-23T14:49:14;8.70;99.90
8892;DHT22;4482;54.332;10.118;2024-02-23T14:51:40;8.70;99.90
8892;DHT22;4482;54.332;10.118;2024-02-23T14:54:08;8.70;99.90
8892;DHT22;4482;54.332;10.118;2024-02-23T14:56:34;8.70;99.90
8892;DHT22;4482;54.332;10.118;2024-02-23T14:59:01;8.70;99.90
8892;DHT22;4482;54.332;10.118;2024-02-23T15:01:28;8.70;99.90
8892;DHT22;4482;54.332;10.118;2024-02-23T15:03:56;8.60;99.90
8892;DHT22;4482;54.332;10.118;2024-02-23T15:06:22;8.60;99.90
8892;DHT22;4482;54.332;10.118;2024-02-23T15:08:49;8.50;99.90
8892;DHT22;4482;54.332;10.118;2024-02-23T15:11:16;8.50;99.90
8892;DHT22;4482;54.332;10.118;2024-02-23T15:13:43;8.60;99.90
8892;DHT22;4482;54.332;10.118;2024-02-23T15:16:10;8.60;99.90
8892;DHT22;4482;54.332;10.118;2024-02-23T15:18:36;8.60;99.90
8892;DHT22;4482;54.332;10.118;2024-02-23T15:21:04;8.70;99.90
8892;DHT22;4482;54.332;10.118;2024-02-23T15:23:31;8.80;99.90
8892;DHT22;4482;54.332;10.118;2024-02-23T15:25:58;8.80;99.90
8892;DHT22;4482;54.332;10.118;2024-02-23T15:28:24;8.80;99.90
8892;DHT22;4482;54.332;10.118;2024-02-23T15:30:51;8.80;99.90
8892;DHT22;4482;54.332;10.118;2024-02-23T15:33:18;8.80;99.90
8892;DHT22;4482;54.332;10.118;2024-02-23T15:35:45;8.80;99.90
8892;DHT22;4482;54.332;10.118;2024-02-23T15:38:13;8.80;99.90
8892;DHT22;4482;54.332;10.118;2024-02-23T15:40:40;8.80;99.90
8892;DHT22;4482;54.332;10.118;2024-02-23T15:43:07;8.70;99.90
8892;DHT22;4482;54.332;10.118;2024-02-23T15:45:33;8.70;99.90
8892;DHT22;4482;54.332;10.118;2024-02-23T15:48:00;8.60;99.90
8892;DHT22;4482;54.332;10.118;2024-02-23T15:50:27;8.60;99.90
8892;DHT22;4482;54.332;10.118;2024-02-23T15:52:53;8.60;99.90
8892;DHT22;4482;54.332;10.118;2024-02-23T15:55:22;8.60;99.90
8892;DHT22;4482;54.332;10.118;2024-02-23T15:57:49;8.60;99.90